createdAt,value
2018-01-25T00:00:15.423Z,61.63
2018-01-25T00:02:42.903Z,49.80
2018-01-25T00:05:10.383Z,61.33
2018-01-25T00:07:37.833Z,105.80
2018-01-25T00:10:05.291Z,48.07
2018-01-25T00:12:32.762Z,27.63
2018-01-25T00:15:00.210Z,19.03
2018-01-25T00:17:27.687Z,44.07
2018-01-25T00:19:55.136Z,61.07
2018-01-25T00:22:22.577Z,67.47
2018-01-25T00:24:50.028Z,25.17
2018-01-25T00:27:17.493Z,74.77
2018-01-25T00:29:44.971Z,36.53
2018-01-25T00:32:12.420Z,45.90
2018-01-25T00:34:39.882Z,37.97
2018-01-25T00:37:07.355Z,38.17
2018-01-25T00:39:34.822Z,70.07
2018-01-25T00:42:02.282Z,33.87
2018-01-25T00:44:29.747Z,74.90
2018-01-25T00:46:57.234Z,47.10
2018-01-25T00:49:24.711Z,72.13
2018-01-25T00:51:52.169Z,92.00
2018-01-25T00:54:19.650Z,41.30
2018-01-25T00:56:47.096Z,27.17
2018-01-25T00:59:14.563Z,58.03
2018-01-25T01:01:42.037Z,60.50
2018-01-25T01:04:09.488Z,58.57
2018-01-25T01:06:36.959Z,107.00
2018-01-25T01:09:04.427Z,57.30
2018-01-25T01:11:31.911Z,66.50
2018-01-25T01:13:59.364Z,63.53
2018-01-25T01:16:26.817Z,50.30
2018-01-25T01:18:54.290Z,53.10
2018-01-25T01:21:21.727Z,38.33
2018-01-25T01:23:49.203Z,29.43
2018-01-25T01:26:16.667Z,87.17
2018-01-25T01:28:44.116Z,32.73
2018-01-25T01:31:11.608Z,38.83
2018-01-25T01:33:39.065Z,30.67
2018-01-25T01:36:06.535Z,60.43
2018-01-25T01:38:33.989Z,17.97
2018-01-25T01:41:01.444Z,26.30
2018-01-25T01:43:28.918Z,37.73
2018-01-25T01:45:56.377Z,29.23
2018-01-25T01:48:23.855Z,44.27
2018-01-25T01:50:51.309Z,28.77
2018-01-25T01:53:18.748Z,20.07
2018-01-25T01:55:46.208Z,34.23
2018-01-25T01:58:13.671Z,24.87
2018-01-25T02:00:41.163Z,13.60
2018-01-25T02:03:08.635Z,45.93
2018-01-25T02:05:36.080Z,28.97
2018-01-25T02:08:03.579Z,65.33
2018-01-25T02:10:31.033Z,42.77
2018-01-25T02:12:58.500Z,36.57
2018-01-25T02:15:25.963Z,30.40
2018-01-25T02:17:53.427Z,30.03
2018-01-25T02:20:20.903Z,47.47
2018-01-25T02:22:48.344Z,27.93
2018-01-25T02:25:15.808Z,67.50
2018-01-25T02:27:43.253Z,30.73
2018-01-25T02:30:10.713Z,18.23
2018-01-25T02:32:38.172Z,26.20
2018-01-25T02:35:05.638Z,20.93
2018-01-25T02:37:33.151Z,27.70
2018-01-25T02:40:00.600Z,66.00
2018-01-25T02:42:28.082Z,48.47
2018-01-25T02:44:55.577Z,40.17
2018-01-25T02:47:23.043Z,51.03
2018-01-25T02:49:50.509Z,29.80
2018-01-25T02:52:17.965Z,50.90
2018-01-25T02:54:45.435Z,25.23
2018-01-25T02:57:12.905Z,26.10
2018-01-25T02:59:40.371Z,54.57
2018-01-25T03:02:07.851Z,38.60
2018-01-25T03:04:35.319Z,26.77
2018-01-25T03:07:02.792Z,32.23
2018-01-25T03:09:30.250Z,31.70
2018-01-25T03:11:57.698Z,49.77
2018-01-25T03:14:25.169Z,47.03
2018-01-25T03:16:52.617Z,67.17
2018-01-25T03:19:20.082Z,111.40
2018-01-25T03:21:47.546Z,52.10
2018-01-25T03:24:15.011Z,50.93
2018-01-25T03:26:42.480Z,17.30
2018-01-25T03:29:09.924Z,28.70
2018-01-25T03:31:37.369Z,14.53
2018-01-25T03:34:04.844Z,34.57
2018-01-25T03:36:32.306Z,18.83
2018-01-25T03:38:59.787Z,11.60
2018-01-25T03:41:27.232Z,23.23
2018-01-25T03:43:54.685Z,23.97
2018-01-25T03:46:22.149Z,18.53
2018-01-25T03:48:49.627Z,20.90
2018-01-25T03:51:17.102Z,57.10
2018-01-25T03:53:44.567Z,33.43
2018-01-25T03:56:12.035Z,18.43
2018-01-25T03:58:39.512Z,23.03
2018-01-25T04:01:06.957Z,18.23
2018-01-25T04:03:34.420Z,16.67
2018-01-25T04:06:01.870Z,21.13
2018-01-25T04:08:29.317Z,11.93
2018-01-25T04:10:56.796Z,14.20
2018-01-25T04:13:24.260Z,27.77
2018-01-25T04:15:51.712Z,15.10
2018-01-25T04:18:19.164Z,17.33
2018-01-25T04:20:46.609Z,17.63
2018-01-25T04:23:14.065Z,26.80
2018-01-25T04:25:41.512Z,18.53
2018-01-25T04:28:08.991Z,18.23
2018-01-25T04:30:36.449Z,22.87
2018-01-25T04:33:03.911Z,8.87
2018-01-25T04:35:31.395Z,15.73
2018-01-25T04:37:58.862Z,23.37
2018-01-25T04:40:26.338Z,17.53
2018-01-25T04:42:53.802Z,19.43
2018-01-25T04:45:21.279Z,21.30
2018-01-25T04:47:48.724Z,10.77
2018-01-25T04:50:16.185Z,13.77
2018-01-25T04:52:43.658Z,14.13
2018-01-25T04:55:11.150Z,12.37
2018-01-25T04:57:38.652Z,10.60
2018-01-25T05:00:06.124Z,15.33
2018-01-25T05:02:33.582Z,9.13
2018-01-25T05:05:01.036Z,17.30
2018-01-25T05:07:28.503Z,10.27
2018-01-25T05:09:55.978Z,12.50
2018-01-25T05:12:23.441Z,10.33
2018-01-25T05:14:50.889Z,8.87
2018-01-25T05:17:38.234Z,16.30
2018-01-25T05:20:05.684Z,17.10
2018-01-25T05:22:33.167Z,15.30
2018-01-25T05:25:00.634Z,18.53
2018-01-25T05:27:28.076Z,8.83
2018-01-25T05:29:55.532Z,11.57
2018-01-25T05:32:22.999Z,18.90
2018-01-25T05:34:50.478Z,16.47
2018-01-25T05:37:17.927Z,11.73
2018-01-25T05:39:45.378Z,13.50
2018-01-25T05:42:12.845Z,11.10
2018-01-25T05:44:40.316Z,17.23
2018-01-25T05:47:07.803Z,13.03
2018-01-25T05:49:35.248Z,13.93
2018-01-25T05:52:02.692Z,17.00
2018-01-25T05:54:30.155Z,13.30
2018-01-25T05:56:57.620Z,14.43
2018-01-25T05:59:25.107Z,15.37
2018-01-25T06:01:52.564Z,27.57
2018-01-25T06:04:20.026Z,10.90
2018-01-25T06:06:47.485Z,12.43
2018-01-25T06:09:14.944Z,18.33
2018-01-25T06:11:42.421Z,10.57
2018-01-25T06:14:09.864Z,13.77
2018-01-25T06:16:37.320Z,16.70
2018-01-25T06:19:04.795Z,16.73
2018-01-25T06:21:32.250Z,50.70
2018-01-25T06:23:59.732Z,8.07
2018-01-25T06:26:27.180Z,14.30
2018-01-25T06:28:54.642Z,13.27
2018-01-25T06:31:22.100Z,18.40
2018-01-25T06:33:49.549Z,15.80
2018-01-25T06:36:17.027Z,17.90
2018-01-25T06:38:44.480Z,21.10
2018-01-25T06:41:11.959Z,10.73
2018-01-25T06:43:39.434Z,31.83
2018-01-25T06:46:06.898Z,13.33
2018-01-25T06:48:34.360Z,11.30
2018-01-25T06:51:01.808Z,10.87
2018-01-25T06:53:29.275Z,12.00
2018-01-25T06:55:56.730Z,15.30
2018-01-25T06:58:24.213Z,16.93
2018-01-25T07:00:51.729Z,19.90
2018-01-25T07:03:19.203Z,14.03
2018-01-25T07:05:46.659Z,23.80
2018-01-25T07:08:14.168Z,23.30
2018-01-25T07:10:41.628Z,13.37
2018-01-25T07:13:09.098Z,29.83
2018-01-25T07:15:36.548Z,25.47
2018-01-25T07:18:04.019Z,34.47
2018-01-25T07:20:31.501Z,21.60
2018-01-25T07:22:58.971Z,26.40
2018-01-25T07:25:26.452Z,19.80
2018-01-25T07:27:53.903Z,21.33
2018-01-25T07:30:21.378Z,15.73
2018-01-25T07:32:48.837Z,10.90
2018-01-25T07:35:16.307Z,24.03
2018-01-25T07:37:43.777Z,31.03
2018-01-25T07:40:11.241Z,22.00
2018-01-25T07:42:38.692Z,29.00
2018-01-25T07:45:06.118Z,65.57
2018-01-25T07:47:33.623Z,27.27
2018-01-25T07:50:01.207Z,30.37
2018-01-25T07:52:28.663Z,21.10
2018-01-25T07:54:56.125Z,26.00
2018-01-25T08:10:46.078Z,11.27
2018-01-25T08:13:19.103Z,12.33
2018-01-25T08:15:46.564Z,15.37
2018-01-25T08:18:14.039Z,14.13
2018-01-25T08:20:41.517Z,12.20
2018-01-25T08:23:08.973Z,10.07
2018-01-25T08:25:36.429Z,13.03
2018-01-25T08:28:03.907Z,19.10
2018-01-25T08:30:31.355Z,11.40
2018-01-25T08:32:58.822Z,16.23
2018-01-25T08:35:26.277Z,12.23
2018-01-25T08:37:53.742Z,35.97
2018-01-25T08:40:21.248Z,43.50
2018-01-25T08:42:48.716Z,32.63
2018-01-25T08:45:16.193Z,10.10
2018-01-25T08:47:43.652Z,13.20
2018-01-25T08:50:11.105Z,15.43
2018-01-25T08:52:38.582Z,20.13
2018-01-25T08:55:06.020Z,15.50
2018-01-25T08:57:33.472Z,13.67
2018-01-25T09:00:00.931Z,12.70
2018-01-25T09:02:28.385Z,17.43
2018-01-25T09:04:55.857Z,21.30
2018-01-25T09:07:23.328Z,23.87
2018-01-25T09:09:50.807Z,18.30
2018-01-25T09:12:18.264Z,12.97
2018-01-25T09:14:45.739Z,17.70
2018-01-25T09:17:13.224Z,22.17
2018-01-25T09:19:40.684Z,17.07
2018-01-25T09:22:08.152Z,18.30
2018-01-25T09:24:35.631Z,15.23
2018-01-25T09:27:03.079Z,17.90
2018-01-25T09:29:30.558Z,14.80
2018-01-25T09:31:58.027Z,10.93
2018-01-25T09:34:25.500Z,12.93
2018-01-25T09:36:52.976Z,19.57
2018-01-25T09:39:20.464Z,15.73
2018-01-25T09:41:47.940Z,11.67
2018-01-25T09:44:15.396Z,12.73
2018-01-25T09:46:42.883Z,18.80
2018-01-25T09:49:10.344Z,13.03
2018-01-25T09:51:37.855Z,21.30
2018-01-25T09:54:05.306Z,14.00
2018-01-25T09:56:32.780Z,20.63
2018-01-25T09:59:00.246Z,17.30
2018-01-25T10:01:27.716Z,25.37
2018-01-25T10:03:55.169Z,26.83
2018-01-25T10:06:22.655Z,18.93
2018-01-25T10:08:50.123Z,18.00
2018-01-25T10:11:17.595Z,23.03
2018-01-25T10:13:45.052Z,21.43
2018-01-25T10:16:12.507Z,18.00
2018-01-25T10:18:39.968Z,27.63
2018-01-25T10:21:07.490Z,17.63
2018-01-25T10:23:34.939Z,17.97
2018-01-25T10:26:02.404Z,16.70
2018-01-25T10:28:29.866Z,10.63
2018-01-25T10:30:57.346Z,10.30
2018-01-25T10:33:24.804Z,7.97
2018-01-25T10:35:52.253Z,16.57
2018-01-25T10:38:19.712Z,13.23
2018-01-25T10:40:47.178Z,15.93
2018-01-25T10:43:14.644Z,8.40
2018-01-25T10:45:42.114Z,11.33
2018-01-25T10:48:09.647Z,14.67
2018-01-25T10:50:37.063Z,13.37
2018-01-25T10:53:04.531Z,15.03
2018-01-25T10:55:31.996Z,22.70
2018-01-25T10:57:59.457Z,16.23
2018-01-25T11:00:26.927Z,12.30
2018-01-25T11:02:54.399Z,15.30
2018-01-25T11:05:21.875Z,13.57
2018-01-25T11:07:49.335Z,14.27
2018-01-25T11:10:16.779Z,31.60
2018-01-25T11:12:44.250Z,54.47
2018-01-25T11:15:11.743Z,100.53
2018-01-25T11:17:39.209Z,26.83
2018-01-25T11:20:06.695Z,16.80
2018-01-25T11:22:34.148Z,24.50
2018-01-25T11:25:01.591Z,31.13
2018-01-25T11:27:29.062Z,28.77
2018-01-25T11:29:56.508Z,15.77
2018-01-25T11:32:23.971Z,15.03
2018-01-25T11:34:51.466Z,17.73
2018-01-25T11:37:18.971Z,26.73
2018-01-25T11:39:46.450Z,16.17
2018-01-25T11:42:13.905Z,27.67
2018-01-25T11:44:41.395Z,24.30
2018-01-25T11:47:08.847Z,19.00
2018-01-25T11:49:36.324Z,19.47
2018-01-25T11:52:03.780Z,18.97
2018-01-25T11:54:31.242Z,21.37
2018-01-25T11:56:58.723Z,22.53
2018-01-25T11:59:26.184Z,19.60
2018-01-25T12:01:53.631Z,14.77
2018-01-25T12:04:21.111Z,17.53
2018-01-25T12:06:48.564Z,13.10
2018-01-25T12:09:16.047Z,11.50
2018-01-25T12:11:43.519Z,12.93
2018-01-25T12:14:10.992Z,10.83
2018-01-25T12:16:38.495Z,14.50
2018-01-25T12:19:05.944Z,9.83
2018-01-25T12:21:33.408Z,13.93
2018-01-25T12:24:00.882Z,11.50
2018-01-25T12:26:28.368Z,10.80
2018-01-25T12:28:55.824Z,13.07
2018-01-25T12:31:23.287Z,13.03
2018-01-25T12:33:50.762Z,10.93
2018-01-25T12:36:18.222Z,13.23
2018-01-25T12:38:45.663Z,16.43
2018-01-25T12:41:13.143Z,14.77
2018-01-25T12:43:40.593Z,21.53
2018-01-25T12:46:08.159Z,15.90
2018-01-25T12:48:35.627Z,12.43
2018-01-25T12:51:03.116Z,15.90
2018-01-25T12:53:30.598Z,16.27
2018-01-25T12:55:58.075Z,16.67
2018-01-25T12:58:25.554Z,18.00
2018-01-25T13:00:53.028Z,22.67
2018-01-25T13:03:20.495Z,26.30
2018-01-25T13:05:47.956Z,16.70
2018-01-25T13:08:15.432Z,25.47
2018-01-25T13:10:42.914Z,14.73
2018-01-25T13:13:10.380Z,33.20
2018-01-25T13:15:37.867Z,19.93
2018-01-25T13:18:05.316Z,14.17
2018-01-25T13:20:32.783Z,18.40
2018-01-25T13:23:00.260Z,15.90
2018-01-25T13:25:27.713Z,17.13
2018-01-25T13:27:55.208Z,17.87
2018-01-25T13:30:22.682Z,19.10
2018-01-25T13:46:13.731Z,14.07
2018-01-25T13:48:41.405Z,13.43
2018-01-25T13:51:08.885Z,10.90
2018-01-25T13:53:36.364Z,21.67
2018-01-25T13:56:03.854Z,13.77
2018-01-25T13:58:31.317Z,18.33
2018-01-25T14:00:58.768Z,18.50
2018-01-25T14:03:26.234Z,11.13
2018-01-25T14:05:53.676Z,10.83
2018-01-25T14:08:21.127Z,10.20
2018-01-25T14:10:48.590Z,17.33
2018-01-25T14:13:16.051Z,11.87
2018-01-25T14:15:43.540Z,16.60
2018-01-25T14:18:11.018Z,14.63
2018-01-25T14:20:38.487Z,11.97
2018-01-25T14:23:05.932Z,13.90
2018-01-25T14:25:33.380Z,20.70
2018-01-25T14:28:00.856Z,26.33
2018-01-25T14:30:28.312Z,16.90
2018-01-25T14:32:55.786Z,20.30
2018-01-25T14:35:23.270Z,16.30
2018-01-25T14:37:50.745Z,15.70
2018-01-25T14:40:18.212Z,13.30
2018-01-25T14:42:45.735Z,21.63
2018-01-25T14:45:13.211Z,30.23
2018-01-25T14:47:40.671Z,12.90
2018-01-25T14:50:08.142Z,32.77
2018-01-25T14:52:35.610Z,38.97
2018-01-25T14:55:03.095Z,35.93
2018-01-25T14:57:30.568Z,59.90
2018-01-25T14:59:58.039Z,41.83
2018-01-25T15:02:25.500Z,23.63
2018-01-25T15:04:52.982Z,31.50
2018-01-25T15:07:20.479Z,42.10
2018-01-25T15:09:47.955Z,24.20
2018-01-25T15:12:15.428Z,16.30
2018-01-25T15:14:42.890Z,16.40
2018-01-25T15:17:10.340Z,41.10
2018-01-25T15:19:37.828Z,21.67
2018-01-25T15:22:05.295Z,17.60
2018-01-25T15:24:32.748Z,21.57
2018-01-25T15:27:00.208Z,24.70
2018-01-25T15:29:27.656Z,16.17
2018-01-25T15:31:55.116Z,14.73
2018-01-25T15:34:22.559Z,18.43
2018-01-25T15:36:50.032Z,24.30
2018-01-25T15:39:17.500Z,17.10
2018-01-25T15:41:44.962Z,16.07
2018-01-25T15:44:12.448Z,14.03
2018-01-25T15:46:39.919Z,12.00
2018-01-25T15:49:07.388Z,17.17
2018-01-25T15:51:34.999Z,17.30
2018-01-25T15:54:02.539Z,21.90
2018-01-25T15:56:30.023Z,18.00
2018-01-25T15:58:57.500Z,18.33
2018-01-25T16:01:24.988Z,21.93
2018-01-25T16:03:52.552Z,17.60
2018-01-25T16:06:20.064Z,19.63
2018-01-25T16:08:47.532Z,15.60
2018-01-25T16:11:15.039Z,20.23
2018-01-25T16:13:42.523Z,14.80
2018-01-25T16:16:10.023Z,28.20
2018-01-25T16:18:37.507Z,20.37
2018-01-25T16:21:04.960Z,32.23
2018-01-25T16:23:32.431Z,83.00
2018-01-25T16:25:59.899Z,76.93
2018-01-25T16:28:30.186Z,82.73
2018-01-25T16:30:57.685Z,47.13
2018-01-25T16:33:25.136Z,57.40
2018-01-25T16:35:52.611Z,42.73
2018-01-25T16:38:20.180Z,35.57
2018-01-25T16:40:47.660Z,48.70
2018-01-25T16:43:15.133Z,51.73
2018-01-25T16:45:42.607Z,56.57
2018-01-25T16:48:10.065Z,50.03
2018-01-25T16:50:37.560Z,55.00
2018-01-25T16:53:05.020Z,74.87
2018-01-25T16:55:32.518Z,70.30
2018-01-25T16:57:59.986Z,57.83
2018-01-25T17:00:27.468Z,85.83
2018-01-25T17:02:54.940Z,104.00
2018-01-25T17:05:22.396Z,132.47
2018-01-25T17:07:49.882Z,111.80
2018-01-25T17:10:17.362Z,225.97
2018-01-25T17:12:44.821Z,274.37
2018-01-25T17:15:12.316Z,173.67
2018-01-25T17:17:39.825Z,131.93
2018-01-25T17:20:07.595Z,137.60
2018-01-25T17:22:35.067Z,61.97
2018-01-25T17:25:02.566Z,74.77
2018-01-25T17:27:30.031Z,63.70
2018-01-25T17:29:57.890Z,43.93
2018-01-25T17:32:25.390Z,45.10
2018-01-25T17:34:52.920Z,28.83
2018-01-25T17:37:20.431Z,28.13
2018-01-25T17:39:47.947Z,32.10
2018-01-25T17:42:15.444Z,40.07
2018-01-25T17:44:42.936Z,38.97
2018-01-25T17:47:10.404Z,30.63
2018-01-25T17:49:37.956Z,42.27
2018-01-25T17:52:05.432Z,49.33
2018-01-25T17:54:32.916Z,45.43
2018-01-25T17:57:00.379Z,49.67
2018-01-25T17:59:27.875Z,63.33
2018-01-25T18:01:55.351Z,90.30
2018-01-25T18:04:22.916Z,95.87
2018-01-25T18:06:50.425Z,97.93
2018-01-25T18:09:17.940Z,72.73
2018-01-25T18:11:45.523Z,67.10
2018-01-25T18:14:13.089Z,73.83
2018-01-25T18:16:40.556Z,50.43
2018-01-25T18:19:08.040Z,65.87
2018-01-25T18:21:35.591Z,37.90
2018-01-25T18:24:03.075Z,34.17
2018-01-25T18:26:30.577Z,24.43
2018-01-25T18:28:58.048Z,27.33
2018-01-25T18:31:25.497Z,25.70
2018-01-25T18:33:53.003Z,33.13
2018-01-25T18:36:20.492Z,27.90
2018-01-25T18:38:47.967Z,36.60
2018-01-25T18:41:16.366Z,25.00
2018-01-25T18:43:44.022Z,23.10
2018-01-25T18:46:11.726Z,32.13
2018-01-25T18:48:39.204Z,24.17
2018-01-25T18:51:06.856Z,23.93
2018-01-25T18:53:34.342Z,25.90
2018-01-25T18:56:01.815Z,27.83
2018-01-25T18:58:29.292Z,28.93
2018-01-25T19:00:56.765Z,24.70
2018-01-25T19:03:24.237Z,38.73
2018-01-25T19:05:51.708Z,30.93
2018-01-25T19:08:19.174Z,33.87
2018-01-25T19:10:46.648Z,32.87
2018-01-25T19:13:14.136Z,34.10
2018-01-25T19:15:41.668Z,33.03
2018-01-25T19:18:09.182Z,31.13
2018-01-25T19:20:36.671Z,31.67
2018-01-25T19:23:04.172Z,25.47
2018-01-25T19:25:31.649Z,32.63
2018-01-25T19:27:59.131Z,27.80
2018-01-25T19:30:26.619Z,27.83
2018-01-25T19:32:54.107Z,41.00
2018-01-25T19:35:21.583Z,33.73
2018-01-25T19:37:49.053Z,36.80
2018-01-25T19:40:16.530Z,25.23
2018-01-25T19:42:43.997Z,28.67
2018-01-25T19:45:11.452Z,31.07
2018-01-25T19:47:38.932Z,31.50
2018-01-25T19:50:06.400Z,31.07
2018-01-25T19:52:33.912Z,25.97
2018-01-25T19:55:01.386Z,29.07
2018-01-25T19:57:28.874Z,32.60
2018-01-25T19:59:56.385Z,30.33
2018-01-25T20:02:23.856Z,32.93
2018-01-25T20:04:51.323Z,31.00
2018-01-25T20:07:18.807Z,30.90
2018-01-25T20:09:46.280Z,32.20
2018-01-25T20:12:13.776Z,33.63
2018-01-25T20:14:41.395Z,33.80
2018-01-25T20:17:08.848Z,37.90
2018-01-25T20:19:36.331Z,35.23
2018-01-25T20:22:03.800Z,34.67
2018-01-25T20:24:31.288Z,34.13
2018-01-25T20:26:58.762Z,34.60
2018-01-25T20:29:26.256Z,37.10
2018-01-25T20:31:53.842Z,41.20
2018-01-25T20:34:21.339Z,42.90
2018-01-25T20:36:48.896Z,35.13
2018-01-25T20:39:16.379Z,32.60
2018-01-25T20:41:43.859Z,47.03
2018-01-25T20:44:11.385Z,36.30
2018-01-25T20:46:38.874Z,44.53
2018-01-25T20:49:06.421Z,38.50
2018-01-25T20:51:33.885Z,38.43
2018-01-25T20:54:01.486Z,34.43
2018-01-25T20:56:29.177Z,32.77
2018-01-25T20:58:56.666Z,33.03
2018-01-25T21:01:24.157Z,44.97
2018-01-25T21:03:53.078Z,37.63
2018-01-25T21:06:20.622Z,42.90
2018-01-25T21:08:48.113Z,45.40
2018-01-25T21:11:15.587Z,31.80
2018-01-25T21:13:43.087Z,33.33
2018-01-25T21:16:10.607Z,38.27
2018-01-25T21:18:38.098Z,47.37
2018-01-25T21:21:05.615Z,45.43
2018-01-25T21:23:33.109Z,33.53
2018-01-25T21:26:00.619Z,37.57
2018-01-25T21:28:28.084Z,37.50
2018-01-25T21:30:55.692Z,36.70
2018-01-25T21:33:23.220Z,32.47
2018-01-25T21:35:50.874Z,28.30
2018-01-25T21:38:18.395Z,33.37
2018-01-25T21:40:45.859Z,33.47
2018-01-25T21:43:13.416Z,32.73
2018-01-25T21:45:41.004Z,31.07
2018-01-25T21:48:08.504Z,37.33
2018-01-25T21:50:36.007Z,32.53
2018-01-25T21:53:03.490Z,32.10
2018-01-25T21:55:30.969Z,43.17
2018-01-25T21:57:58.449Z,24.57
2018-01-25T22:00:25.926Z,48.13
2018-01-25T22:02:53.395Z,39.10
2018-01-25T22:05:20.909Z,37.77
2018-01-25T22:07:48.388Z,53.30
2018-01-25T22:10:15.907Z,50.37
2018-01-25T22:12:43.395Z,58.77
2018-01-25T22:15:10.869Z,46.37
2018-01-25T22:17:38.469Z,31.90
2018-01-25T22:20:06.088Z,41.90
2018-01-25T22:22:33.598Z,30.27
2018-01-25T22:25:01.111Z,31.13
2018-01-25T22:27:28.604Z,39.53
2018-01-25T22:29:56.092Z,48.17
2018-01-25T22:32:23.582Z,48.83
2018-01-25T22:34:51.059Z,43.57
2018-01-25T22:37:18.504Z,27.30
2018-01-25T22:39:45.995Z,34.00
2018-01-25T22:42:13.472Z,34.13
2018-01-25T22:44:40.955Z,38.57
2018-01-25T22:47:08.435Z,29.10
2018-01-25T22:49:35.893Z,34.03
2018-01-25T22:52:03.386Z,29.33
2018-01-25T22:54:30.836Z,23.83
2018-01-25T22:56:58.303Z,43.30
2018-01-25T22:59:25.760Z,33.50
2018-01-25T23:01:53.217Z,48.10
2018-01-25T23:04:20.683Z,43.37
2018-01-25T23:06:48.137Z,38.57
2018-01-25T23:09:15.592Z,44.30
2018-01-25T23:11:43.078Z,57.50
2018-01-25T23:14:10.532Z,47.23
2018-01-25T23:16:38.012Z,53.33
2018-01-25T23:19:05.455Z,51.23
2018-01-25T23:21:32.922Z,42.93
2018-01-25T23:24:00.352Z,49.90
2018-01-25T23:26:27.857Z,36.07
2018-01-25T23:28:55.343Z,41.50
2018-01-25T23:31:22.801Z,35.33
2018-01-25T23:33:50.270Z,49.27
2018-01-25T23:36:17.724Z,34.17
2018-01-25T23:38:45.203Z,35.00
2018-01-25T23:41:12.703Z,52.27
2018-01-25T23:43:40.174Z,48.10
2018-01-25T23:46:07.628Z,51.80
2018-01-25T23:48:35.107Z,68.83
2018-01-25T23:51:02.564Z,52.60
2018-01-25T23:53:30.033Z,42.70
2018-01-25T23:55:57.514Z,124.87
2018-01-25T23:58:24.964Z,60.23
